Terminal Aerodrome Forecast
Issued by NWS

Home | Current Version | Previous Version | Graphics & Text | Print | Product List | Glossary On
Versions: 1 2 3 4 5 6 7 8 9 10 11 12 13 14 15 16 17 18 19 20 21
000
FTUS43 KGRB 242328
TAFRHI
TAF
KRHI 242328Z 2500/2524 24009KT P6SM SCT050
     FM250100 32003KT P6SM SCT050
     FM250600 VRB03KT 3SM BR SCT006 BKN250
      TEMPO 2508/2512 1SM BR BKN003
     FM251400 11008KT P6SM SCT018 BKN200
     FM252100 12009KT P6SM SCT025 OVC045 PROB30 2522/2524 5SM -TSRA
      OVC025CB=

USA.gov is the U.S. government's official web portal to all federal, state and local government web resources and services.